Time;durP1;ratioP1;P1;durP2;ratioP2;P2;SDS_P1;SDS_P2;PMS_P1;PMS_P2;Temp;Humidity;BMP_temperature;BMP_pressure;BME280_temperature;BME280_humidity;BME280_pressure;Samples;Min_cycle;Max_cycle;Signal;HPM_P1;HPM_P2
2021/06/18 00:02:07;;;;;;;11.23;7.77;;;;;;;;;;5047080;28;20052;-63
2021/06/18 00:04:32;;;;;;;10.43;7.53;;;;;;;;;;5047649;28;20302;-63
2021/06/18 00:06:57;;;;;;;10.27;7.88;;;;;;;;;;5047307;28;20029;-63
2021/06/18 00:09:22;;;;;;;10.88;8.07;;;;;;;;;;5046853;28;20127;-64
2021/06/18 00:11:48;;;;;;;11.93;8.32;;;;;;;;;;5046510;28;20154;-63
2021/06/18 00:14:13;;;;;;;10.40;7.65;;;;;;;;;;5047471;28;20021;-63
2021/06/18 00:16:38;;;;;;;10.25;7.72;;;;;;;;;;5046802;28;20083;-63
2021/06/18 00:19:03;;;;;;;11.52;7.78;;;;;;;;;;5047862;28;20025;-63
2021/06/18 00:21:29;;;;;;;10.40;7.40;;;;;;;;;;5046673;28;20117;-63
2021/06/18 00:23:54;;;;;;;12.85;8.07;;;;;;;;;;5047343;28;20106;-64
2021/06/18 00:26:19;;;;;;;10.63;7.50;;;;;;;;;;5045889;28;20025;-63
2021/06/18 00:28:44;;;;;;;11.23;7.43;;;;;;;;;;5046636;28;20146;-63
2021/06/18 00:31:10;;;;;;;10.23;7.63;;;;;;;;;;5045281;28;20132;-63
2021/06/18 00:33:35;;;;;;;9.88;7.00;;;;;;;;;;5047235;28;20152;-63
2021/06/18 00:36:01;;;;;;;11.32;7.72;;;;;;;;;;5045975;28;20036;-62
2021/06/18 00:38:26;;;;;;;11.40;7.25;;;;;;;;;;5046698;28;20033;-63
2021/06/18 00:40:51;;;;;;;10.70;7.28;;;;;;;;;;5046013;28;20025;-64
2021/06/18 00:43:16;;;;;;;8.95;7.28;;;;;;;;;;5047128;28;20021;-63
2021/06/18 00:45:42;;;;;;;10.00;7.33;;;;;;;;;;5047533;28;20025;-64
2021/06/18 00:48:07;;;;;;;9.93;6.70;;;;;;;;;;5047375;28;20279;-63
2021/06/18 00:50:32;;;;;;;9.07;6.60;;;;;;;;;;5051175;28;20476;-64
2021/06/18 00:52:58;;;;;;;9.10;6.75;;;;;;;;;;5048707;28;20017;-63
2021/06/18 00:55:23;;;;;;;9.80;6.57;;;;;;;;;;5049864;28;20025;-63
2021/06/18 00:57:49;;;;;;;8.07;6.13;;;;;;;;;;5050943;28;20040;-63
2021/06/18 01:00:14;;;;;;;9.90;6.93;;;;;;;;;;5050548;28;20108;-64
2021/06/18 01:02:40;;;;;;;9.27;6.93;;;;;;;;;;5049996;28;20035;-64
2021/06/18 01:05:07;;;;;;;9.15;6.97;;;;;;;;;;5050102;28;20072;-63
2021/06/18 01:07:33;;;;;;;8.10;6.80;;;;;;;;;;5081208;28;20039;-63
2021/06/18 01:10:04;;;;;;;9.32;6.95;;;;;;;;;;5051624;28;20025;-64
2021/06/18 01:12:34;;;;;;;8.43;6.95;;;;;;;;;;5051503;28;20028;-63
2021/06/18 01:15:00;;;;;;;;;;;;;;;;;;5050571;28;20024;-62
2021/06/18 01:17:51;;;;;;;9.70;6.80;;;;;;;;;;5049598;28;20280;-64
2021/06/18 01:20:17;;;;;;;9.32;6.82;;;;;;;;;;4995409;28;20116;-63
2021/06/18 01:22:45;;;;;;;9.57;6.57;;;;;;;;;;4989891;28;20382;-63
2021/06/18 01:25:36;;;;;;;10.55;6.53;;;;;;;;;;4991886;28;20062;-63
2021/06/18 01:28:20;;;;;;;9.75;6.13;;;;;;;;;;4989871;28;20109;-64
2021/06/18 01:30:46;;;;;;;7.88;6.22;;;;;;;;;;4992727;28;20464;-64
2021/06/18 01:33:14;;;;;;;7.65;6.10;;;;;;;;;;4992994;28;20061;-63
2021/06/18 01:35:41;;;;;;;9.23;6.47;;;;;;;;;;4994808;28;20702;-63
2021/06/18 01:38:08;;;;;;;9.50;5.90;;;;;;;;;;4991865;28;20070;-63
2021/06/18 01:40:33;;;;;;;8.00;6.57;;;;;;;;;;4994635;28;20084;-64
2021/06/18 01:43:00;;;;;;;8.63;6.00;;;;;;;;;;4991797;28;20054;-63
2021/06/18 01:45:26;;;;;;;8.32;6.00;;;;;;;;;;4994857;28;20021;-63
2021/06/18 01:47:53;;;;;;;8.75;5.82;;;;;;;;;;4993804;28;20029;-64
2021/06/18 01:50:20;;;;;;;7.55;5.72;;;;;;;;;;4988154;28;20442;-64
2021/06/18 01:52:49;;;;;;;8.50;6.03;;;;;;;;;;4988615;28;20121;-63
2021/06/18 01:55:15;;;;;;;7.15;5.32;;;;;;;;;;4987267;28;20025;-63
2021/06/18 01:57:41;;;;;;;7.32;5.40;;;;;;;;;;5031283;28;20037;-64
2021/06/18 02:00:07;;;;;;;7.43;5.40;;;;;;;;;;5044481;28;20025;-63
2021/06/18 02:02:33;;;;;;;6.97;5.05;;;;;;;;;;5061819;28;20093;-63
2021/06/18 02:04:58;;;;;;;8.40;5.45;;;;;;;;;;5050593;28;20428;-63
2021/06/18 02:07:25;;;;;;;6.97;5.30;;;;;;;;;;5050277;28;20031;-63
2021/06/18 02:09:51;;;;;;;8.00;5.40;;;;;;;;;;5050310;28;20028;-63
2021/06/18 02:12:16;;;;;;;7.57;5.10;;;;;;;;;;5049997;28;20098;-63
2021/06/18 02:14:42;;;;;;;7.88;5.30;;;;;;;;;;5050166;28;20032;-64
2021/06/18 02:17:08;;;;;;;7.88;5.32;;;;;;;;;;5049610;28;20128;-64
2021/06/18 02:19:35;;;;;;;8.32;5.68;;;;;;;;;;5049898;28;20021;-63
2021/06/18 02:22:02;;;;;;;7.57;5.88;;;;;;;;;;5050094;28;20033;-64
2021/06/18 02:24:29;;;;;;;8.25;5.70;;;;;;;;;;5049909;28;20037;-63
2021/06/18 02:26:55;;;;;;;8.52;5.68;;;;;;;;;;5049246;28;20025;-63
2021/06/18 02:29:20;;;;;;;7.40;5.70;;;;;;;;;;5049965;28;20368;-63
2021/06/18 02:31:46;;;;;;;7.30;5.32;;;;;;;;;;5050321;28;20472;-63
2021/06/18 02:34:12;;;;;;;7.78;5.50;;;;;;;;;;5049606;28;20049;-63
2021/06/18 02:36:38;;;;;;;10.07;5.60;;;;;;;;;;5049445;28;20500;-62
2021/06/18 02:39:05;;;;;;;7.25;5.50;;;;;;;;;;5049687;28;20025;-63
2021/06/18 02:41:30;;;;;;;6.28;5.63;;;;;;;;;;5049437;28;20025;-64
2021/06/18 02:43:55;;;;;;;6.05;5.22;;;;;;;;;;5050800;28;20364;-64
2021/06/18 02:46:34;;;;;;;9.23;6.03;;;;;;;;;;5049405;28;20017;-64
2021/06/18 02:49:00;;;;;;;7.53;5.90;;;;;;;;;;5049061;28;20064;-64
2021/06/18 02:51:35;;;;;;;7.22;5.57;;;;;;;;;;5049532;28;20017;-64
2021/06/18 02:54:09;;;;;;;9.00;5.95;;;;;;;;;;5048309;28;20799;-64
2021/06/18 02:56:39;;;;;;;7.22;5.82;;;;;;;;;;5049342;28;20048;-63
2021/06/18 02:59:13;;;;;;;7.13;5.22;;;;;;;;;;5048447;28;20096;-63
2021/06/18 03:01:39;;;;;;;7.43;5.72;;;;;;;;;;5049025;28;20203;-63
2021/06/18 03:04:04;;;;;;;7.15;5.20;;;;;;;;;;5049515;28;20267;-63
2021/06/18 03:06:31;;;;;;;6.10;5.13;;;;;;;;;;5049208;28;20017;-63
2021/06/18 03:08:57;;;;;;;9.43;5.65;;;;;;;;;;5049484;28;20021;-63
2021/06/18 03:11:27;;;;;;;7.20;5.47;;;;;;;;;;5047464;28;20508;-63
2021/06/18 03:13:54;;;;;;;7.75;5.28;;;;;;;;;;5049359;28;20127;-63
2021/06/18 03:16:20;;;;;;;7.20;5.32;;;;;;;;;;5048962;28;20031;-63
2021/06/18 03:18:45;;;;;;;6.63;5.05;;;;;;;;;;5048835;28;20100;-63
2021/06/18 03:21:11;;;;;;;6.90;5.40;;;;;;;;;;5048495;28;20516;-63
2021/06/18 03:23:37;;;;;;;6.75;5.50;;;;;;;;;;5048979;28;20494;-63
2021/06/18 03:26:03;;;;;;;5.72;5.13;;;;;;;;;;5048712;28;20434;-63
2021/06/18 03:28:30;;;;;;;5.90;4.93;;;;;;;;;;5048715;28;20025;-62
2021/06/18 03:30:55;;;;;;;6.97;5.60;;;;;;;;;;5048442;28;20052;-63
2021/06/18 03:33:21;;;;;;;7.43;5.53;;;;;;;;;;5048383;28;20085;-63
2021/06/18 03:35:47;;;;;;;5.95;5.18;;;;;;;;;;5048763;28;20025;-62
2021/06/18 03:38:12;;;;;;;6.53;4.95;;;;;;;;;;5048983;28;20097;-63
2021/06/18 03:40:39;;;;;;;5.88;4.70;;;;;;;;;;5048338;28;20021;-63
2021/06/18 03:43:04;;;;;;;7.68;5.90;;;;;;;;;;5048520;28;20025;-62
2021/06/18 03:45:31;;;;;;;9.10;4.93;;;;;;;;;;5048075;28;20178;-63
2021/06/18 03:47:59;;;;;;;9.35;6.00;;;;;;;;;;5048565;28;20036;-63
2021/06/18 03:50:24;;;;;;;7.28;5.28;;;;;;;;;;5047902;28;20589;-63
2021/06/18 03:52:49;;;;;;;6.25;5.20;;;;;;;;;;5048426;28;20029;-63
2021/06/18 03:55:15;;;;;;;8.93;5.82;;;;;;;;;;5048079;28;20449;-63
2021/06/18 03:57:41;;;;;;;12.57;6.15;;;;;;;;;;5047924;28;20059;-62
2021/06/18 04:00:07;;;;;;;7.70;5.97;;;;;;;;;;5048366;28;20025;-62
2021/06/18 04:02:33;;;;;;;8.63;6.10;;;;;;;;;;5046222;28;20032;-62
2021/06/18 04:04:59;;;;;;;7.93;6.35;;;;;;;;;;5048204;28;20027;-62
2021/06/18 04:07:25;;;;;;;6.30;5.32;;;;;;;;;;5048378;28;20025;-63
2021/06/18 04:09:51;;;;;;;11.85;6.20;;;;;;;;;;5048371;28;20376;-64
2021/06/18 04:12:16;;;;;;;6.95;5.50;;;;;;;;;;5048092;28;20025;-63
2021/06/18 04:14:42;;;;;;;8.55;5.60;;;;;;;;;;5054510;28;20119;-63
2021/06/18 04:17:07;;;;;;;10.60;5.65;;;;;;;;;;5036843;28;20075;-62
2021/06/18 04:19:33;;;;;;;6.88;5.75;;;;;;;;;;5047914;28;20072;-62
2021/06/18 04:22:03;;;;;;;7.95;5.28;;;;;;;;;;5048905;28;20021;-63
2021/06/18 04:24:28;;;;;;;9.70;5.93;;;;;;;;;;5047556;28;20055;-63
2021/06/18 04:26:54;;;;;;;6.40;5.60;;;;;;;;;;5048580;28;20025;-63
2021/06/18 04:29:19;;;;;;;8.73;5.70;;;;;;;;;;5047628;28;20108;-63
2021/06/18 04:31:44;;;;;;;7.10;4.95;;;;;;;;;;5048561;28;20021;-63
2021/06/18 04:34:09;;;;;;;6.03;5.07;;;;;;;;;;5047411;28;20484;-63
2021/06/18 04:36:38;;;;;;;5.97;4.53;;;;;;;;;;5047727;28;20484;-63
2021/06/18 04:39:04;;;;;;;6.45;4.82;;;;;;;;;;5048062;28;20079;-63
2021/06/18 04:41:29;;;;;;;6.80;5.22;;;;;;;;;;5047168;28;20028;-63
2021/06/18 04:43:54;;;;;;;7.47;4.68;;;;;;;;;;5046535;28;20025;-64
2021/06/18 04:46:20;;;;;;;10.02;4.93;;;;;;;;;;5047159;28;20036;-63
2021/06/18 04:48:45;;;;;;;7.07;4.60;;;;;;;;;;5048148;28;20456;-63
2021/06/18 04:51:10;;;;;;;8.27;4.93;;;;;;;;;;5047691;28;21029;-63
2021/06/18 04:53:36;;;;;;;6.68;4.70;;;;;;;;;;5047719;28;20278;-63
2021/06/18 04:56:01;;;;;;;7.85;4.57;;;;;;;;;;5047935;28;20033;-64
2021/06/18 04:58:26;;;;;;;5.10;4.43;;;;;;;;;;5047571;28;20138;-64
2021/06/18 05:00:52;;;;;;;6.25;4.10;;;;;;;;;;5047092;28;20057;-64
2021/06/18 05:03:17;;;;;;;5.00;4.10;;;;;;;;;;5045896;28;20036;-63
2021/06/18 05:05:42;;;;;;;8.05;4.72;;;;;;;;;;5047828;28;20260;-64
2021/06/18 05:08:07;;;;;;;6.43;4.50;;;;;;;;;;5047506;28;20488;-64
2021/06/18 05:10:32;;;;;;;7.87;4.37;;;;;;;;;;5045684;28;20256;-63
2021/06/18 05:12:58;;;;;;;6.97;4.70;;;;;;;;;;5046050;28;20282;-63
2021/06/18 05:15:23;;;;;;;8.63;4.13;;;;;;;;;;5046854;28;20023;-64
2021/06/18 05:17:48;;;;;;;7.68;4.45;;;;;;;;;;5045010;28;20558;-63
2021/06/18 05:20:14;;;;;;;5.15;4.38;;;;;;;;;;5044841;28;20024;-63
2021/06/18 05:22:39;;;;;;;8.05;4.43;;;;;;;;;;5044985;28;20068;-63
2021/06/18 05:25:05;;;;;;;5.25;4.00;;;;;;;;;;5046358;28;20017;-64
2021/06/18 05:27:30;;;;;;;6.43;4.20;;;;;;;;;;5042834;28;20036;-65
2021/06/18 05:29:55;;;;;;;7.00;4.25;;;;;;;;;;5046116;28;20040;-67
2021/06/18 05:32:20;;;;;;;7.33;4.23;;;;;;;;;;5047487;28;20025;-66
2021/06/18 05:34:46;;;;;;;8.20;3.90;;;;;;;;;;5047337;28;20287;-66
2021/06/18 05:37:11;;;;;;;6.15;4.07;;;;;;;;;;5050790;28;20310;-66
2021/06/18 05:39:36;;;;;;;5.20;4.05;;;;;;;;;;5050781;28;20021;-66
2021/06/18 05:42:02;;;;;;;6.22;3.95;;;;;;;;;;5048375;28;20021;-66
2021/06/18 05:44:27;;;;;;;6.60;3.92;;;;;;;;;;5054448;28;20029;-66
2021/06/18 05:46:52;;;;;;;4.27;3.60;;;;;;;;;;5050756;28;20032;-67
2021/06/18 05:49:17;;;;;;;7.10;3.67;;;;;;;;;;5050931;28;20423;-64
2021/06/18 05:51:43;;;;;;;7.17;4.03;;;;;;;;;;5050310;28;20029;-66
2021/06/18 05:54:08;;;;;;;5.50;3.80;;;;;;;;;;5050893;28;20280;-64
2021/06/18 05:56:33;;;;;;;6.32;3.75;;;;;;;;;;5051016;28;20263;-67
2021/06/18 05:58:58;;;;;;;5.60;3.80;;;;;;;;;;5049192;28;20625;-67
2021/06/18 06:01:24;;;;;;;4.37;3.80;;;;;;;;;;5049436;28;20283;-67
2021/06/18 06:03:52;;;;;;;8.15;4.13;;;;;;;;;;5051351;28;20025;-64
2021/06/18 06:06:17;;;;;;;5.57;3.65;;;;;;;;;;5049135;28;20013;-63
2021/06/18 06:08:42;;;;;;;5.90;3.80;;;;;;;;;;5049210;28;20021;-63
2021/06/18 06:11:07;;;;;;;8.93;3.40;;;;;;;;;;5046867;28;20673;-64
2021/06/18 06:13:33;;;;;;;9.97;3.80;;;;;;;;;;5052092;28;20017;-63
2021/06/18 06:15:58;;;;;;;4.68;3.72;;;;;;;;;;5049049;28;20514;-66
2021/06/18 06:18:23;;;;;;;7.05;3.95;;;;;;;;;;5050472;28;20040;-66
2021/06/18 06:20:49;;;;;;;6.22;4.25;;;;;;;;;;5050851;28;20121;-66
2021/06/18 06:23:14;;;;;;;6.38;3.55;;;;;;;;;;5050531;28;20055;-67
2021/06/18 06:25:39;;;;;;;6.63;3.65;;;;;;;;;;5051067;28;20032;-67
2021/06/18 06:28:05;;;;;;;8.65;3.80;;;;;;;;;;5050459;28;20017;-67
2021/06/18 06:30:30;;;;;;;5.70;3.88;;;;;;;;;;5050354;28;20444;-67
2021/06/18 06:32:55;;;;;;;7.67;3.97;;;;;;;;;;5050402;28;20123;-68
2021/06/18 06:35:22;;;;;;;6.67;3.73;;;;;;;;;;5050863;28;20338;-67
2021/06/18 06:37:47;;;;;;;8.18;3.50;;;;;;;;;;5050367;28;20061;-67
2021/06/18 06:40:12;;;;;;;7.38;3.60;;;;;;;;;;5050094;28;20067;-67
2021/06/18 06:42:38;;;;;;;6.57;3.63;;;;;;;;;;5052469;28;20029;-67
2021/06/18 06:45:04;;;;;;;9.43;3.80;;;;;;;;;;5053963;28;20031;-67
2021/06/18 06:47:29;;;;;;;5.47;3.45;;;;;;;;;;5049175;28;20082;-66
2021/06/18 06:49:54;;;;;;;7.77;3.47;;;;;;;;;;5050301;28;20426;-66
2021/06/18 06:52:20;;;;;;;9.63;3.67;;;;;;;;;;5049746;28;20029;-66
2021/06/18 06:54:45;;;;;;;6.55;3.40;;;;;;;;;;5050394;28;20057;-67
2021/06/18 06:57:11;;;;;;;5.25;3.25;;;;;;;;;;5049895;28;20068;-67
2021/06/18 06:59:36;;;;;;;5.05;3.05;;;;;;;;;;5050146;28;20021;-67
2021/06/18 07:02:01;;;;;;;9.13;3.83;;;;;;;;;;5049843;28;20033;-66
2021/06/18 07:04:26;;;;;;;4.70;3.67;;;;;;;;;;5050386;28;20022;-67
2021/06/18 07:06:52;;;;;;;7.30;3.60;;;;;;;;;;5050236;28;20025;-66
2021/06/18 07:09:17;;;;;;;5.57;3.60;;;;;;;;;;5049699;28;20256;-66
2021/06/18 07:11:42;;;;;;;5.35;3.38;;;;;;;;;;5050154;28;20260;-67
2021/06/18 07:14:08;;;;;;;4.38;3.63;;;;;;;;;;5049675;28;20548;-66
2021/06/18 07:16:33;;;;;;;9.33;3.83;;;;;;;;;;5049666;28;20063;-66
2021/06/18 07:18:58;;;;;;;6.57;3.80;;;;;;;;;;5049986;28;20092;-67
2021/06/18 07:21:23;;;;;;;6.97;3.63;;;;;;;;;;5049843;28;20088;-67
2021/06/18 07:23:48;;;;;;;6.50;3.60;;;;;;;;;;5049328;28;20303;-67
2021/06/18 07:26:13;;;;;;;6.40;3.60;;;;;;;;;;5049832;28;20376;-66
2021/06/18 07:28:39;;;;;;;5.70;3.63;;;;;;;;;;5049100;28;20032;-66
2021/06/18 07:31:04;;;;;;;7.22;3.85;;;;;;;;;;5049687;28;20029;-66
2021/06/18 07:33:29;;;;;;;5.03;3.97;;;;;;;;;;5049108;28;20902;-66
2021/06/18 07:35:54;;;;;;;8.55;4.30;;;;;;;;;;5049901;28;20325;-67
2021/06/18 07:38:19;;;;;;;6.20;4.10;;;;;;;;;;5049214;28;20071;-67
2021/06/18 07:40:45;;;;;;;7.57;4.60;;;;;;;;;;5049478;28;20062;-68
2021/06/18 07:43:10;;;;;;;5.53;3.67;;;;;;;;;;5049497;28;20052;-67
2021/06/18 07:45:35;;;;;;;6.80;4.47;;;;;;;;;;5048727;28;20033;-66
2021/06/18 07:48:02;;;;;;;8.60;4.40;;;;;;;;;;5049105;28;20279;-66
2021/06/18 07:50:27;;;;;;;10.68;4.50;;;;;;;;;;5049129;28;20287;-66
2021/06/18 07:52:52;;;;;;;10.00;4.68;;;;;;;;;;5049032;28;20496;-66
2021/06/18 07:55:23;;;;;;;8.30;4.50;;;;;;;;;;5048980;28;20059;-66
2021/06/18 07:57:49;;;;;;;8.68;4.82;;;;;;;;;;5047461;28;20033;-67
2021/06/18 08:00:14;;;;;;;6.18;4.53;;;;;;;;;;5048737;28;20043;-66
2021/06/18 08:02:39;;;;;;;9.80;4.57;;;;;;;;;;5049056;28;20009;-67
2021/06/18 08:05:05;;;;;;;8.82;5.00;;;;;;;;;;5048636;28;20111;-66
2021/06/18 08:07:30;;;;;;;7.85;4.75;;;;;;;;;;5048905;28;20483;-66
2021/06/18 08:09:55;;;;;;;8.93;4.80;;;;;;;;;;5048617;28;20021;-67
2021/06/18 08:12:21;;;;;;;8.00;4.10;;;;;;;;;;5048807;28;20036;-67
2021/06/18 08:14:46;;;;;;;5.80;4.85;;;;;;;;;;5048392;28;20287;-66
2021/06/18 08:17:12;;;;;;;8.68;5.82;;;;;;;;;;5049091;28;20025;-67
2021/06/18 08:19:37;;;;;;;8.30;4.75;;;;;;;;;;5048449;28;20020;-66
2021/06/18 08:22:03;;;;;;;8.30;4.00;;;;;;;;;;5048955;28;20029;-66
2021/06/18 08:24:28;;;;;;;8.98;5.00;;;;;;;;;;5048417;28;20040;-68
2021/06/18 08:26:53;;;;;;;9.57;5.13;;;;;;;;;;5048217;28;20025;-66
2021/06/18 08:29:19;;;;;;;9.60;4.87;;;;;;;;;;5048580;28;20271;-66
2021/06/18 08:31:44;;;;;;;9.17;5.47;;;;;;;;;;5047052;28;20283;-66
2021/06/18 08:34:09;;;;;;;7.73;5.30;;;;;;;;;;5048092;28;20127;-67
2021/06/18 08:36:34;;;;;;;13.65;4.90;;;;;;;;;;5048322;28;20047;-66
2021/06/18 08:39:00;;;;;;;8.20;4.93;;;;;;;;;;5048369;28;20021;-67
2021/06/18 08:41:25;;;;;;;11.37;4.83;;;;;;;;;;5048283;28;20147;-67
2021/06/18 08:43:50;;;;;;;5.68;4.38;;;;;;;;;;5048772;28;20259;-66
2021/06/18 08:46:15;;;;;;;10.23;4.70;;;;;;;;;;5048059;28;20052;-66
2021/06/18 08:48:40;;;;;;;9.90;5.10;;;;;;;;;;5048795;28;21200;-66
2021/06/18 08:51:06;;;;;;;12.73;5.33;;;;;;;;;;5048259;28;20116;-66
2021/06/18 08:53:32;;;;;;;10.55;5.15;;;;;;;;;;5048531;28;20286;-66
2021/06/18 08:55:57;;;;;;;11.65;4.85;;;;;;;;;;5047970;28;20025;-66
2021/06/18 08:58:23;;;;;;;8.67;5.00;;;;;;;;;;5048592;28;20032;-67
2021/06/18 09:00:48;;;;;;;7.07;4.90;;;;;;;;;;5048514;28;20468;-66
2021/06/18 09:03:32;;;;;;;8.48;5.20;;;;;;;;;;5048532;28;20260;-66
2021/06/18 09:05:59;;;;;;;7.90;5.05;;;;;;;;;;5048021;28;20472;-66
2021/06/18 09:08:24;;;;;;;8.50;5.20;;;;;;;;;;5048510;28;20026;-68
2021/06/18 09:10:51;;;;;;;8.07;5.13;;;;;;;;;;5051015;28;20024;-67
2021/06/18 09:13:17;;;;;;;10.52;5.18;;;;;;;;;;5056721;28;20020;-66
2021/06/18 09:15:50;;;;;;;7.63;5.07;;;;;;;;;;5052141;28;20017;-66
2021/06/18 09:18:22;;;;;;;10.43;5.35;;;;;;;;;;5051913;28;20554;-67
2021/06/18 09:20:47;;;;;;;9.65;5.45;;;;;;;;;;5052180;28;20021;-67
2021/06/18 09:23:19;;;;;;;7.20;4.60;;;;;;;;;;5051945;28;20101;-67
2021/06/18 09:25:44;;;;;;;10.00;5.25;;;;;;;;;;5052348;28;20032;-67
2021/06/18 09:28:10;;;;;;;12.52;5.80;;;;;;;;;;5051543;28;20384;-67
2021/06/18 09:30:36;;;;;;;7.45;4.78;;;;;;;;;;5051689;28;20048;-67
2021/06/18 09:33:02;;;;;;;6.75;4.93;;;;;;;;;;5051942;28;20021;-68
2021/06/18 09:35:28;;;;;;;9.30;4.97;;;;;;;;;;5051745;28;20032;-68
2021/06/18 09:38:03;;;;;;;8.38;5.15;;;;;;;;;;5051639;28;20453;-67
2021/06/18 09:40:28;;;;;;;8.73;5.25;;;;;;;;;;5051513;28;20013;-68
2021/06/18 09:42:58;;;;;;;7.35;5.10;;;;;;;;;;5054512;28;20028;-67
2021/06/18 09:45:30;;;;;;;8.00;5.15;;;;;;;;;;5051167;28;20017;-68
2021/06/18 09:48:11;;;;;;;9.10;5.32;;;;;;;;;;5051566;28;20040;-68
2021/06/18 09:50:39;;;;;;;9.02;5.25;;;;;;;;;;5051270;28;20357;-68
2021/06/18 09:53:21;;;;;;;7.10;5.03;;;;;;;;;;5051503;28;20032;-68
2021/06/18 09:55:47;;;;;;;9.77;4.97;;;;;;;;;;5051346;28;20021;-68
2021/06/18 09:58:13;;;;;;;7.60;4.68;;;;;;;;;;5051057;28;20037;-68
2021/06/18 10:00:38;;;;;;;8.80;4.95;;;;;;;;;;5050941;28;20013;-67
2021/06/18 10:03:07;;;;;;;9.07;5.30;;;;;;;;;;5050878;28;20464;-67
2021/06/18 10:05:34;;;;;;;7.30;4.90;;;;;;;;;;5049534;28;20044;-67
2021/06/18 10:08:00;;;;;;;6.90;5.13;;;;;;;;;;5051145;28;20021;-66
2021/06/18 10:10:26;;;;;;;10.65;5.80;;;;;;;;;;5049777;28;20028;-66
2021/06/18 10:12:54;;;;;;;9.90;5.38;;;;;;;;;;5050700;28;20443;-66
2021/06/18 10:15:21;;;;;;;7.03;5.43;;;;;;;;;;5050288;28;20159;-67
2021/06/18 10:17:47;;;;;;;9.07;5.10;;;;;;;;;;5050494;28;20037;-67
2021/06/18 10:20:13;;;;;;;7.05;5.15;;;;;;;;;;5049914;28;20174;-68
2021/06/18 10:22:44;;;;;;;8.15;4.82;;;;;;;;;;5050001;28;20075;-68
2021/06/18 10:25:10;;;;;;;6.60;4.45;;;;;;;;;;5050653;28;20021;-66
2021/06/18 10:27:44;;;;;;;7.80;5.38;;;;;;;;;;5050174;28;20017;-67
2021/06/18 10:30:42;;;;;;;6.97;4.95;;;;;;;;;;5048781;28;20484;-67
2021/06/18 10:33:26;;;;;;;11.02;5.03;;;;;;;;;;5007043;28;20034;-67
2021/06/18 10:35:58;;;;;;;6.93;4.53;;;;;;;;;;5008397;28;20120;-66
2021/06/18 10:38:33;;;;;;;7.40;4.53;;;;;;;;;;5007999;28;20464;-66
2021/06/18 10:41:07;;;;;;;8.63;4.82;;;;;;;;;;5008285;28;20022;-66
2021/06/18 10:43:37;;;;;;;6.05;4.40;;;;;;;;;;5008115;28;20040;-65
2021/06/18 10:46:04;;;;;;;8.18;3.70;;;;;;;;;;5008188;28;20017;-66
2021/06/18 10:48:44;;;;;;;8.98;4.70;;;;;;;;;;5008398;28;20026;-65
2021/06/18 10:51:28;;;;;;;7.97;5.10;;;;;;;;;;5007800;28;20045;-66
2021/06/18 10:53:55;;;;;;;10.52;4.97;;;;;;;;;;5007945;28;20436;-67
2021/06/18 10:56:42;;;;;;;9.65;4.97;;;;;;;;;;5007873;28;20038;-67
2021/06/18 10:59:08;;;;;;;10.82;4.70;;;;;;;;;;5007464;28;20389;-66
2021/06/18 11:01:34;;;;;;;6.82;4.30;;;;;;;;;;5007852;28;20050;-66
2021/06/18 11:04:00;;;;;;;6.85;4.70;;;;;;;;;;5007720;28;20110;-67
2021/06/18 11:06:40;;;;;;;5.80;4.03;;;;;;;;;;5007628;28;20097;-66
2021/06/18 11:09:05;;;;;;;4.60;3.80;;;;;;;;;;5021739;28;20026;-65
2021/06/18 11:11:30;;;;;;;5.50;3.63;;;;;;;;;;5023647;28;20045;-66
2021/06/18 11:14:03;;;;;;;8.33;3.87;;;;;;;;;;5027433;28;20027;-66
2021/06/18 11:16:33;;;;;;;10.75;4.00;;;;;;;;;;5028248;28;20342;-66
2021/06/18 11:19:17;;;;;;;6.18;3.70;;;;;;;;;;5029483;28;20113;-67
2021/06/18 11:21:42;;;;;;;8.05;4.10;;;;;;;;;;5017226;28;20111;-66
2021/06/18 11:24:07;;;;;;;4.77;3.63;;;;;;;;;;5029789;28;20056;-66
2021/06/18 11:26:32;;;;;;;7.38;4.40;;;;;;;;;;5029691;28;20654;-66
2021/06/18 11:28:57;;;;;;;7.77;3.73;;;;;;;;;;5029988;28;20122;-67
2021/06/18 11:31:43;;;;;;;16.73;4.10;;;;;;;;;;5029410;28;20033;-66
2021/06/18 11:34:23;;;;;;;6.72;3.70;;;;;;;;;;5033510;28;20049;-67
2021/06/18 11:36:49;;;;;;;5.28;4.30;;;;;;;;;;5047847;28;20447;-67
2021/06/18 11:39:17;;;;;;;7.57;4.00;;;;;;;;;;5046329;28;20028;-67
2021/06/18 11:41:44;;;;;;;7.03;4.13;;;;;;;;;;5048970;28;20499;-67
2021/06/18 11:44:11;;;;;;;9.65;4.05;;;;;;;;;;5048539;28;20017;-67
2021/06/18 11:46:36;;;;;;;6.38;3.90;;;;;;;;;;5048399;28;20319;-67
2021/06/18 11:49:12;;;;;;;7.90;4.10;;;;;;;;;;5048768;28;20522;-66
2021/06/18 11:51:38;;;;;;;6.47;3.80;;;;;;;;;;5048599;28;20574;-67
2021/06/18 11:54:03;;;;;;;8.18;4.22;;;;;;;;;;5048430;28;20116;-67
2021/06/18 11:56:29;;;;;;;9.13;4.03;;;;;;;;;;5048202;28;20025;-67
2021/06/18 11:58:54;;;;;;;6.45;3.80;;;;;;;;;;5047914;28;20025;-66
2021/06/18 12:01:29;;;;;;;7.97;4.20;;;;;;;;;;5048056;28;20563;-66
2021/06/18 12:03:57;;;;;;;5.97;3.80;;;;;;;;;;5047021;28;20271;-67
2021/06/18 12:06:23;;;;;;;7.00;3.90;;;;;;;;;;5043811;28;20037;-68
2021/06/18 12:09:06;;;;;;;5.50;3.67;;;;;;;;;;5047208;28;20468;-66
2021/06/18 12:11:31;;;;;;;5.45;3.85;;;;;;;;;;5048019;28;20037;-68
2021/06/18 12:13:57;;;;;;;6.55;3.70;;;;;;;;;;5048345;28;20487;-67
2021/06/18 12:16:33;;;;;;;4.82;3.65;;;;;;;;;;5047512;28;20033;-67
2021/06/18 12:19:17;;;;;;;5.05;3.65;;;;;;;;;;5045324;28;20029;-67
2021/06/18 12:21:42;;;;;;;5.10;3.90;;;;;;;;;;5048035;28;20155;-67
2021/06/18 12:24:07;;;;;;;7.33;3.80;;;;;;;;;;5045589;28;20202;-66
2021/06/18 12:26:33;;;;;;;6.28;3.72;;;;;;;;;;5048646;28;20032;-68
2021/06/18 12:29:02;;;;;;;6.35;3.80;;;;;;;;;;5048230;28;20032;-66
2021/06/18 12:31:27;;;;;;;5.45;3.60;;;;;;;;;;5048837;28;20017;-68
2021/06/18 12:33:52;;;;;;;6.38;3.92;;;;;;;;;;5046998;28;20053;-69
2021/06/18 12:36:19;;;;;;;5.93;3.80;;;;;;;;;;5047621;28;20481;-68
2021/06/18 12:38:46;;;;;;;7.53;4.22;;;;;;;;;;5048024;28;20497;-68
2021/06/18 12:41:31;;;;;;;5.85;3.80;;;;;;;;;;5033114;28;20025;-68
2021/06/18 12:44:03;;;;;;;10.27;4.20;;;;;;;;;;5047685;28;20116;-68
2021/06/18 12:46:29;;;;;;;5.97;3.97;;;;;;;;;;5051893;28;20349;-69
2021/06/18 12:49:03;;;;;;;8.38;4.20;;;;;;;;;;5050872;28;20017;-69
2021/06/18 12:51:28;;;;;;;7.20;4.28;;;;;;;;;;5052572;28;20111;-69
2021/06/18 12:54:00;;;;;;;5.93;4.23;;;;;;;;;;5051585;28;20447;-69
2021/06/18 12:56:25;;;;;;;8.43;4.00;;;;;;;;;;5049887;28;20412;-65
2021/06/18 12:58:52;;;;;;;7.47;4.00;;;;;;;;;;5051380;28;20032;-66
2021/06/18 13:01:24;;;;;;;7.85;3.83;;;;;;;;;;5050996;28;20009;-67
2021/06/18 13:03:51;;;;;;;5.68;4.00;;;;;;;;;;5052522;28;20048;-67
2021/06/18 13:06:17;;;;;;;7.53;4.00;;;;;;;;;;5052492;28;20013;-67
2021/06/18 13:08:51;;;;;;;6.10;3.75;;;;;;;;;;5051803;28;20025;-67
2021/06/18 13:11:20;;;;;;;7.95;3.90;;;;;;;;;;5050051;28;20037;-67
2021/06/18 13:13:46;;;;;;;4.72;3.53;;;;;;;;;;5051803;28;20017;-66
2021/06/18 13:16:13;;;;;;;4.55;3.60;;;;;;;;;;5051432;28;20082;-66
2021/06/18 13:19:08;;;;;;;7.03;3.55;;;;;;;;;;5051308;28;20132;-66
2021/06/18 13:21:44;;;;;;;10.60;3.85;;;;;;;;;;4987297;28;20618;-66
2021/06/18 13:24:10;;;;;;;9.07;3.90;;;;;;;;;;4988326;28;20022;-67
2021/06/18 13:26:36;;;;;;;4.95;3.67;;;;;;;;;;4989713;28;20027;-66
2021/06/18 13:29:08;;;;;;;7.30;3.47;;;;;;;;;;4990275;28;20141;-66
2021/06/18 13:31:34;;;;;;;6.32;3.80;;;;;;;;;;4989953;28;20038;-67
2021/06/18 13:33:59;;;;;;;6.90;4.05;;;;;;;;;;4989709;28;20061;-66
2021/06/18 13:36:26;;;;;;;8.50;3.67;;;;;;;;;;4988682;28;20065;-67
2021/06/18 13:38:51;;;;;;;8.50;3.67;;;;;;;;;;4987690;28;20054;-66
2021/06/18 13:41:17;;;;;;;6.05;3.65;;;;;;;;;;4989051;28;20026;-66
2021/06/18 13:43:42;;;;;;;9.00;3.67;;;;;;;;;;4988944;28;20121;-66
2021/06/18 13:46:07;;;;;;;9.87;3.40;;;;;;;;;;4989400;28;20061;-67
2021/06/18 13:48:33;;;;;;;5.97;3.35;;;;;;;;;;4988065;28;20092;-66
2021/06/18 13:50:58;;;;;;;7.13;3.97;;;;;;;;;;4988267;28;20223;-67
2021/06/18 13:53:23;;;;;;;9.30;3.93;;;;;;;;;;4988217;28;20085;-68
2021/06/18 13:55:53;;;;;;;3.63;3.10;;;;;;;;;;4988820;28;20180;-67
2021/06/18 13:58:18;;;;;;;6.50;3.47;;;;;;;;;;5028149;28;20315;-62
2021/06/18 14:00:44;;;;;;;6.60;3.45;;;;;;;;;;5048729;28;20602;-63
2021/06/18 14:03:09;;;;;;;5.25;3.90;;;;;;;;;;5049056;28;20020;-61
2021/06/18 14:05:35;;;;;;;3.92;3.05;;;;;;;;;;5047803;28;20135;-61
2021/06/18 14:08:00;;;;;;;12.73;3.77;;;;;;;;;;5051420;28;20048;-62
2021/06/18 14:10:25;;;;;;;5.85;3.45;;;;;;;;;;5049365;28;20021;-62
2021/06/18 14:12:50;;;;;;;3.75;3.10;;;;;;;;;;5050808;28;20021;-62
2021/06/18 14:15:24;;;;;;;5.63;3.60;;;;;;;;;;5048987;28;20017;-62
2021/06/18 14:17:49;;;;;;;5.85;2.88;;;;;;;;;;5048747;28;20741;-62
2021/06/18 14:20:15;;;;;;;5.97;3.53;;;;;;;;;;5051234;28;20132;-61
2021/06/18 14:22:40;;;;;;;6.25;3.45;;;;;;;;;;5048935;28;20484;-62
2021/06/18 14:25:06;;;;;;;3.70;2.65;;;;;;;;;;5051021;28;20111;-62
2021/06/18 14:27:31;;;;;;;7.15;3.10;;;;;;;;;;5050339;28;20108;-60
2021/06/18 14:29:58;;;;;;;5.60;3.35;;;;;;;;;;5051018;28;20025;-61
2021/06/18 14:32:23;;;;;;;5.30;3.25;;;;;;;;;;5050457;28;20075;-61
2021/06/18 14:34:48;;;;;;;6.13;3.40;;;;;;;;;;5050535;28;20057;-61
2021/06/18 14:37:14;;;;;;;6.10;3.90;;;;;;;;;;5050411;28;20025;-62
2021/06/18 14:39:39;;;;;;;5.65;3.35;;;;;;;;;;5050498;28;20025;-62
2021/06/18 14:42:04;;;;;;;10.80;3.30;;;;;;;;;;5050090;28;20025;-61